createdAt,value
2017-05-08T00:01:27.060Z,13.93
2017-05-08T00:03:54.366Z,13.60
2017-05-08T00:09:15.459Z,13.48
2017-05-08T00:11:42.395Z,13.47
2017-05-08T00:14:09.435Z,13.23
2017-05-08T00:16:36.411Z,14.00
2017-05-08T00:19:04.177Z,13.32
2017-05-08T00:21:31.194Z,13.20
2017-05-08T00:23:58.270Z,11.90
2017-05-08T00:26:26.022Z,11.28
2017-05-08T00:28:53.709Z,11.28
2017-05-08T00:31:20.691Z,11.82
2017-05-08T00:33:48.491Z,12.62
2017-05-08T00:36:15.465Z,12.48
2017-05-08T00:38:42.448Z,12.22
2017-05-08T00:41:09.433Z,11.95
2017-05-08T00:43:37.164Z,13.07
2017-05-08T00:46:04.157Z,13.28
2017-05-08T00:48:31.214Z,15.43
2017-05-08T00:50:58.225Z,16.05
2017-05-08T00:53:25.216Z,16.10
2017-05-08T00:55:52.201Z,16.73
2017-05-08T00:58:37.891Z,15.46
2017-05-08T01:01:11.703Z,17.27
2017-05-08T01:03:38.809Z,16.75
2017-05-08T01:08:59.774Z,16.25
2017-05-08T01:11:27.285Z,16.53
2017-05-08T01:13:54.258Z,16.20
2017-05-08T01:16:21.232Z,15.90
2017-05-08T01:18:48.169Z,17.25
2017-05-08T01:21:15.081Z,16.73
2017-05-08T01:23:42.286Z,17.37
2017-05-08T01:26:09.255Z,16.70
2017-05-08T01:28:36.294Z,16.50
2017-05-08T01:31:03.260Z,16.82
2017-05-08T01:33:31.127Z,16.70
2017-05-08T01:36:18.652Z,16.28
2017-05-08T01:38:45.609Z,16.75
2017-05-08T01:41:32.517Z,17.10
2017-05-08T01:46:54.384Z,17.10
2017-05-08T01:49:21.368Z,16.43
2017-05-08T01:54:42.186Z,16.48
2017-05-08T01:57:09.122Z,15.80
2017-05-08T01:59:36.211Z,15.20
2017-05-08T02:02:03.176Z,15.90
2017-05-08T02:04:30.752Z,14.55
2017-05-08T02:06:57.700Z,14.50
2017-05-08T02:09:37.612Z,14.43
2017-05-08T02:12:04.798Z,14.65
2017-05-08T02:14:31.830Z,14.70
2017-05-08T02:16:59.054Z,15.03
2017-05-08T02:22:20.306Z,15.18
2017-05-08T02:24:47.255Z,15.03
2017-05-08T02:27:15.213Z,16.40
2017-05-08T02:29:42.235Z,16.58
2017-05-08T02:32:26.102Z,16.10
2017-05-08T02:34:54.093Z,16.37
2017-05-08T02:37:21.026Z,15.62
2017-05-08T02:39:47.978Z,15.08
2017-05-08T02:42:15.851Z,15.30
2017-05-08T02:44:43.517Z,16.10
2017-05-08T02:47:10.471Z,15.55
2017-05-08T02:49:38.557Z,16.18
2017-05-08T02:52:05.526Z,16.98
2017-05-08T02:54:32.462Z,15.84
2017-05-08T02:56:59.432Z,16.93
2017-05-08T02:59:26.410Z,16.53
2017-05-08T03:01:54.187Z,16.40
2017-05-08T03:04:36.166Z,16.55
2017-05-08T03:07:04.160Z,16.90
2017-05-08T03:12:24.845Z,17.02
2017-05-08T03:14:53.620Z,17.03
2017-05-08T03:17:20.586Z,17.80
2017-05-08T03:19:48.642Z,18.37
2017-05-08T03:22:15.598Z,17.52
2017-05-08T03:27:37.423Z,18.82
2017-05-08T03:30:04.389Z,18.32
2017-05-08T03:32:32.061Z,18.37
2017-05-08T03:34:59.737Z,17.67
2017-05-08T03:37:26.666Z,17.83
2017-05-08T03:39:53.593Z,17.97
2017-05-08T03:42:20.800Z,19.10
2017-05-08T03:44:47.736Z,18.12
2017-05-08T03:47:14.699Z,18.52
2017-05-08T03:49:41.681Z,17.80
2017-05-08T03:52:15.319Z,18.50
2017-05-08T03:57:36.165Z,17.92
2017-05-08T04:00:03.245Z,18.48
2017-05-08T04:02:30.205Z,18.68
2017-05-08T04:04:57.949Z,18.95
2017-05-08T04:07:25.088Z,18.38
2017-05-08T04:09:52.816Z,19.03
2017-05-08T04:12:19.916Z,18.65
2017-05-08T04:14:49.502Z,19.40
2017-05-08T04:17:16.489Z,19.50
2017-05-08T04:19:43.465Z,19.73
2017-05-08T04:22:10.493Z,20.03
2017-05-08T04:24:37.500Z,20.80
2017-05-08T04:27:04.515Z,19.77
2017-05-08T04:29:31.491Z,20.23
2017-05-08T04:31:58.563Z,19.92
2017-05-08T04:34:25.671Z,21.03
2017-05-08T04:36:52.764Z,20.98
2017-05-08T04:39:23.196Z,21.17
2017-05-08T04:41:50.158Z,22.62
2017-05-08T04:44:17.186Z,22.67
2017-05-08T04:46:44.846Z,22.87
2017-05-08T04:49:11.834Z,24.25
2017-05-08T04:51:38.912Z,24.72
2017-05-08T04:54:05.861Z,25.20
2017-05-08T04:56:33.671Z,26.07
2017-05-08T04:59:00.795Z,25.80
2017-05-08T05:01:27.935Z,26.75
2017-05-08T05:03:54.924Z,31.65
2017-05-08T05:06:21.893Z,32.05
2017-05-08T05:08:48.877Z,31.63
2017-05-08T05:11:15.838Z,35.68
2017-05-08T05:13:42.802Z,36.08
2017-05-08T05:16:09.783Z,34.37
2017-05-08T05:18:36.755Z,33.22
2017-05-08T05:21:05.687Z,31.42
2017-05-08T05:23:33.723Z,30.95
2017-05-08T05:26:01.261Z,30.30
2017-05-08T05:28:28.200Z,30.00
2017-05-08T05:30:55.950Z,29.80
2017-05-08T05:33:22.906Z,30.24
2017-05-08T05:35:50.613Z,31.30
2017-05-08T05:38:17.573Z,30.88
2017-05-08T05:40:44.602Z,33.37
2017-05-08T05:43:11.602Z,32.37
2017-05-08T05:45:39.287Z,36.12
2017-05-08T05:48:06.244Z,35.57
2017-05-08T05:50:33.248Z,37.35
2017-05-08T05:53:00.926Z,36.47
2017-05-08T05:55:28.260Z,37.00
2017-05-08T05:57:55.231Z,40.02
2017-05-08T06:00:22.207Z,40.46
2017-05-08T06:02:49.202Z,38.40
2017-05-08T06:05:16.943Z,37.77
2017-05-08T06:07:43.917Z,34.02
2017-05-08T06:10:11.618Z,34.23
2017-05-08T06:12:38.562Z,33.90
2017-05-08T06:15:06.111Z,35.58
2017-05-08T06:17:33.151Z,38.90
2017-05-08T06:20:00.138Z,41.20
2017-05-08T06:22:27.848Z,42.35
2017-05-08T06:24:54.815Z,41.77
2017-05-08T06:27:21.784Z,41.25
2017-05-08T06:29:49.905Z,42.58
2017-05-08T06:32:16.851Z,42.70
2017-05-08T06:34:43.840Z,42.25
2017-05-08T06:37:10.852Z,43.12
2017-05-08T06:39:38.236Z,43.58
2017-05-08T06:42:05.262Z,42.27
2017-05-08T06:44:32.206Z,43.33
2017-05-08T06:46:59.871Z,45.12
2017-05-08T06:49:28.171Z,44.67
2017-05-08T06:51:56.200Z,39.38
2017-05-08T06:54:23.157Z,35.62
2017-05-08T06:56:50.134Z,31.53
2017-05-08T06:59:17.090Z,29.77
2017-05-08T07:01:44.350Z,25.58
2017-05-08T07:04:12.433Z,23.90
2017-05-08T07:06:39.874Z,24.12
2017-05-08T07:09:07.642Z,24.45
2017-05-08T07:11:34.598Z,24.06
2017-05-08T07:14:02.374Z,22.80
2017-05-08T07:16:29.349Z,24.40
2017-05-08T07:19:20.169Z,24.95
2017-05-08T07:21:47.282Z,25.10
2017-05-08T07:24:28.231Z,26.63
2017-05-08T07:26:56.866Z,27.24
2017-05-08T07:29:23.854Z,28.43
2017-05-08T07:31:51.910Z,29.45
2017-05-08T07:34:18.937Z,30.08
2017-05-08T07:36:46.072Z,30.15
2017-05-08T07:39:13.138Z,29.05
2017-05-08T07:44:34.908Z,26.58
2017-05-08T07:47:02.026Z,26.73
2017-05-08T07:49:29.202Z,27.53
2017-05-08T07:51:56.453Z,33.23
2017-05-08T07:54:24.231Z,35.20
2017-05-08T07:56:51.483Z,48.65
2017-05-08T08:54:24.134Z,37.90
2017-05-08T08:56:51.163Z,39.07
2017-05-08T08:59:18.858Z,39.57
2017-05-08T09:01:45.834Z,39.95
2017-05-08T09:04:12.775Z,40.18
2017-05-08T09:06:39.748Z,44.75
2017-05-08T09:09:07.843Z,46.62
2017-05-08T09:11:35.175Z,46.70
2017-05-08T09:14:04.284Z,48.87
2017-05-08T09:16:31.418Z,49.58
2017-05-08T09:19:00.179Z,50.80
2017-05-08T09:21:29.326Z,49.15
2017-05-08T09:23:56.505Z,47.73
2017-05-08T09:26:23.694Z,44.22
2017-05-08T09:28:51.442Z,42.35
2017-05-08T09:31:18.697Z,45.23
2017-05-08T09:36:21.370Z,38.87
2017-05-08T09:38:56.180Z,43.50
2017-05-08T09:41:24.385Z,42.85
2017-05-08T09:43:52.329Z,44.77
2017-05-08T09:46:21.454Z,48.16
2017-05-08T09:48:53.538Z,44.68
2017-05-08T09:51:33.083Z,43.82
2017-05-08T09:54:00.778Z,45.12
2017-05-08T09:56:27.745Z,46.20
2017-05-08T09:58:54.694Z,48.80
2017-05-08T10:01:22.463Z,52.07
2017-05-08T10:03:49.609Z,54.62
2017-05-08T10:06:16.813Z,52.96
2017-05-08T10:08:44.890Z,51.44
2017-05-08T10:11:12.123Z,48.68
2017-05-08T10:13:39.197Z,43.32
2017-05-08T10:16:06.911Z,41.13
2017-05-08T10:18:34.007Z,37.75
2017-05-08T10:21:00.983Z,40.93
2017-05-08T10:23:27.982Z,38.57
2017-05-08T10:25:55.033Z,41.82
2017-05-08T10:28:22.276Z,42.67
2017-05-08T10:33:44.230Z,43.82
2017-05-08T10:36:11.260Z,40.90
2017-05-08T10:38:38.208Z,40.67
2017-05-08T10:41:05.903Z,38.98
2017-05-08T10:43:32.848Z,40.93
2017-05-08T10:45:59.799Z,39.08
2017-05-08T10:48:26.860Z,38.98
2017-05-08T10:50:53.813Z,39.35
2017-05-08T10:56:14.562Z,37.30
2017-05-08T10:58:41.619Z,38.82
2017-05-08T11:01:09.324Z,37.50
2017-05-08T11:03:36.322Z,37.48
2017-05-08T11:06:03.466Z,37.57
2017-05-08T11:08:31.712Z,38.58
2017-05-08T11:11:00.178Z,38.25
2017-05-08T11:13:33.593Z,38.12
2017-05-08T11:18:53.902Z,40.50
2017-05-08T11:21:21.042Z,36.67
2017-05-08T11:23:48.218Z,35.47
2017-05-08T11:26:15.795Z,34.07
2017-05-08T11:28:42.916Z,34.98
2017-05-08T11:31:10.737Z,34.25
2017-05-08T11:33:38.140Z,35.03
2017-05-08T11:36:06.257Z,35.10
2017-05-08T11:38:46.788Z,35.90
2017-05-08T11:41:13.935Z,39.05
2017-05-08T11:46:36.083Z,42.62
2017-05-08T11:49:03.163Z,42.18
2017-05-08T11:51:33.417Z,43.02
2017-05-08T11:54:03.809Z,40.60
2017-05-08T11:59:24.416Z,42.35
2017-05-08T12:01:51.568Z,46.32
2017-05-08T12:04:18.609Z,48.02
2017-05-08T12:06:45.620Z,41.52
2017-05-08T12:09:12.626Z,43.43
2017-05-08T12:11:39.916Z,42.62
2017-05-08T12:14:06.931Z,39.72
2017-05-08T12:16:33.913Z,42.72
2017-05-08T12:19:02.577Z,41.18
2017-05-08T12:21:30.800Z,44.37
2017-05-08T12:23:59.796Z,42.82
2017-05-08T12:26:26.819Z,39.88
2017-05-08T12:28:54.721Z,41.02
2017-05-08T12:31:29.515Z,42.82
2017-05-08T12:33:57.650Z,42.87
2017-05-08T12:36:24.773Z,45.55
2017-05-08T12:39:12.221Z,44.28
2017-05-08T12:41:39.202Z,45.03
2017-05-08T12:44:06.181Z,42.88
2017-05-08T12:46:33.257Z,44.10
2017-05-08T12:49:24.016Z,45.42
2017-05-08T12:51:51.443Z,42.12
2017-05-08T12:54:19.737Z,41.33
2017-05-08T12:56:57.449Z,42.20
2017-05-08T12:59:24.819Z,40.77
2017-05-08T13:01:51.837Z,40.08
2017-05-08T13:04:19.096Z,40.40
2017-05-08T13:06:46.080Z,36.50
2017-05-08T13:09:13.174Z,37.15
2017-05-08T13:11:40.997Z,36.32
2017-05-08T13:14:08.015Z,36.35
2017-05-08T13:16:35.057Z,35.53
2017-05-08T13:19:02.181Z,37.70
2017-05-08T13:24:23.593Z,35.17
2017-05-08T13:26:51.534Z,34.95
2017-05-08T13:29:18.612Z,34.20
2017-05-08T13:31:47.107Z,35.50
2017-05-08T13:34:14.281Z,34.30
2017-05-08T13:36:41.316Z,33.22
2017-05-08T13:39:08.377Z,32.92
2017-05-08T13:41:35.390Z,31.65
2017-05-08T13:44:03.276Z,31.37
2017-05-08T13:46:30.345Z,30.27
2017-05-08T13:48:57.496Z,30.03
2017-05-08T13:51:25.887Z,30.20
2017-05-08T13:53:53.304Z,29.85
2017-05-08T13:59:13.690Z,29.80
2017-05-08T14:01:41.169Z,30.28
2017-05-08T14:04:08.287Z,30.22
2017-05-08T14:06:35.679Z,29.86
2017-05-08T14:09:02.809Z,31.05
2017-05-08T14:11:31.284Z,31.32
2017-05-08T14:13:59.468Z,31.22
2017-05-08T14:19:20.628Z,32.48
2017-05-08T14:21:49.162Z,30.17
2017-05-08T14:24:30.387Z,32.02
2017-05-08T14:26:58.220Z,31.17
2017-05-08T14:29:25.313Z,29.78
2017-05-08T14:31:55.890Z,27.83
2017-05-08T14:34:27.498Z,25.88
2017-05-08T14:36:55.305Z,26.83
2017-05-08T14:39:22.803Z,28.00
2017-05-08T14:41:50.085Z,27.13
2017-05-08T14:44:17.283Z,27.97
2017-05-08T14:46:44.361Z,25.00
2017-05-08T14:49:12.617Z,25.73
2017-05-08T14:51:43.042Z,23.47
2017-05-08T14:54:10.810Z,25.30
2017-05-08T14:56:37.887Z,34.87
2017-05-08T15:01:59.401Z,20.92
2017-05-08T15:04:26.671Z,22.92
2017-05-08T15:06:54.567Z,19.47
2017-05-08T15:09:22.489Z,18.92
2017-05-08T15:11:49.521Z,18.20
2017-05-08T15:14:16.792Z,18.47
2017-05-08T15:16:43.948Z,19.12
2017-05-08T15:19:11.158Z,18.20
2017-05-08T15:22:03.201Z,18.83
2017-05-08T15:24:30.600Z,19.02
2017-05-08T15:26:58.600Z,18.60
2017-05-08T15:29:25.745Z,18.35
2017-05-08T15:31:52.775Z,17.33
2017-05-08T15:34:19.837Z,15.90
2017-05-08T15:36:47.136Z,17.10
2017-05-08T15:39:14.286Z,15.88
2017-05-08T15:41:42.480Z,15.23
2017-05-08T15:44:10.083Z,15.25
2017-05-08T15:46:37.196Z,15.05
2017-05-08T15:49:05.155Z,15.65
2017-05-08T15:51:32.503Z,15.85
2017-05-08T15:53:59.576Z,17.50
2017-05-08T15:56:27.599Z,17.00
2017-05-08T15:58:54.775Z,18.47
2017-05-08T16:01:22.698Z,18.67
2017-05-08T16:06:45.435Z,17.05
2017-05-08T16:09:12.661Z,16.02
2017-05-08T16:11:41.191Z,16.13
2017-05-08T16:17:01.836Z,15.97
2017-05-08T16:19:28.976Z,16.40
2017-05-08T16:21:56.138Z,17.72
2017-05-08T16:24:23.576Z,17.30
2017-05-08T16:26:51.105Z,17.05
2017-05-08T16:29:19.868Z,17.30
2017-05-08T16:31:49.071Z,16.90
2017-05-08T16:37:10.160Z,16.85
2017-05-08T16:39:37.965Z,17.30
2017-05-08T16:42:07.698Z,16.20
2017-05-08T16:44:34.836Z,16.93
2017-05-08T16:47:02.142Z,16.80
2017-05-08T16:49:30.026Z,17.15
2017-05-08T16:51:58.293Z,21.55
2017-05-08T16:54:25.505Z,20.92
2017-05-08T16:56:54.280Z,21.05
2017-05-08T16:59:21.645Z,19.92
2017-05-08T17:01:50.418Z,19.98
2017-05-08T17:04:19.632Z,21.60
2017-05-08T17:09:40.362Z,19.75
2017-05-08T17:12:08.268Z,19.67
2017-05-08T17:17:17.630Z,20.20
2017-05-08T17:19:46.046Z,20.37
2017-05-08T17:22:13.394Z,20.40
2017-05-08T17:24:40.530Z,19.85
2017-05-08T17:27:08.299Z,18.93
2017-05-08T17:29:35.405Z,18.67
2017-05-08T17:32:02.594Z,18.33
2017-05-08T17:34:30.016Z,19.00
2017-05-08T17:36:57.396Z,18.87
2017-05-08T17:42:18.961Z,19.38
2017-05-08T17:44:46.011Z,17.98
2017-05-08T17:47:16.213Z,16.90
2017-05-08T17:52:30.875Z,15.23
2017-05-08T17:54:59.332Z,15.10
2017-05-08T17:57:32.104Z,14.83
2017-05-08T18:00:00.718Z,15.28
2017-05-08T18:02:28.781Z,14.33
2017-05-08T18:04:58.123Z,15.02
2017-05-08T18:13:12.066Z,12.18
2017-05-08T18:15:39.412Z,11.60
2017-05-08T18:18:06.721Z,11.38
2017-05-08T18:20:34.212Z,10.27
2017-05-08T18:23:01.565Z,10.45
2017-05-08T18:25:28.635Z,9.58
2017-05-08T18:27:55.680Z,9.83
2017-05-08T18:30:22.915Z,8.42
2017-05-08T18:32:49.965Z,9.00
2017-05-08T18:35:17.003Z,8.38
2017-05-08T18:37:44.010Z,7.80
2017-05-08T18:40:11.048Z,7.78
2017-05-08T18:42:38.483Z,7.60
2017-05-08T18:45:06.516Z,7.43
2017-05-08T18:47:33.516Z,7.33
2017-05-08T18:50:00.829Z,7.30
2017-05-08T18:52:28.016Z,6.43
2017-05-08T18:54:55.299Z,6.28
2017-05-08T19:00:17.827Z,3.40
2017-05-08T19:02:45.058Z,2.95
2017-05-08T19:05:13.148Z,1.75
2017-05-08T19:07:40.222Z,1.60
2017-05-08T19:10:07.267Z,1.40
2017-05-08T19:12:34.611Z,1.57
2017-05-08T19:15:01.890Z,1.60
2017-05-08T19:17:29.141Z,1.90
2017-05-08T19:19:56.238Z,1.30
2017-05-08T19:22:23.284Z,1.20
2017-05-08T19:24:50.984Z,1.30
2017-05-08T19:27:17.956Z,1.22
2017-05-08T19:29:45.027Z,1.20
2017-05-08T19:32:11.967Z,1.32
2017-05-08T19:34:38.908Z,1.30
2017-05-08T19:37:05.937Z,1.25
2017-05-08T19:39:32.893Z,1.20
2017-05-08T19:42:00.099Z,1.22
2017-05-08T19:44:27.511Z,1.10
2017-05-08T19:46:54.500Z,1.27
2017-05-08T19:58:21.959Z,1.10
2017-05-08T20:00:48.936Z,1.00
2017-05-08T20:03:15.847Z,1.10
2017-05-08T20:05:42.820Z,1.30
2017-05-08T20:08:09.909Z,1.20
2017-05-08T20:10:36.846Z,1.30
2017-05-08T20:13:03.763Z,1.40
2017-05-08T20:15:30.768Z,1.80
2017-05-08T20:17:57.718Z,1.70
2017-05-08T20:20:24.999Z,2.02
2017-05-08T20:22:51.971Z,1.60
2017-05-08T20:25:18.971Z,1.90
2017-05-08T20:27:45.934Z,2.27
2017-05-08T20:30:13.650Z,2.50
2017-05-08T20:32:40.636Z,2.20
2017-05-08T20:35:08.355Z,2.72
2017-05-08T20:37:35.316Z,2.80
2017-05-08T20:40:02.260Z,2.63
2017-05-08T20:42:29.196Z,3.10
2017-05-08T20:44:56.448Z,3.07
2017-05-08T20:47:23.371Z,3.22
2017-05-08T20:49:50.338Z,3.60
2017-05-08T20:52:17.290Z,3.35
2017-05-08T20:54:44.240Z,3.80
2017-05-08T20:57:11.170Z,4.07
2017-05-08T20:59:38.114Z,3.87
2017-05-08T21:02:05.071Z,4.43
2017-05-08T21:04:32.015Z,4.15
2017-05-08T21:06:58.927Z,4.05
2017-05-08T21:09:25.851Z,4.50
2017-05-08T21:11:52.761Z,4.30
2017-05-08T21:14:20.437Z,4.58
2017-05-08T21:16:47.362Z,3.82
2017-05-08T21:19:14.292Z,5.05
2017-05-08T21:21:41.478Z,3.90
2017-05-08T21:24:08.382Z,3.37
2017-05-08T21:26:35.314Z,3.33
2017-05-08T21:29:02.263Z,3.90
2017-05-08T21:31:29.197Z,4.20
2017-05-08T21:33:56.106Z,4.77
2017-05-08T21:36:23.085Z,4.40
2017-05-08T21:38:50.001Z,3.73
2017-05-08T21:41:16.958Z,4.50
2017-05-08T21:43:43.908Z,4.70
2017-05-08T21:46:11.028Z,4.52
2017-05-08T21:48:37.939Z,4.65
2017-05-08T21:51:05.286Z,4.63
2017-05-08T21:53:32.229Z,4.52
2017-05-08T21:55:59.162Z,5.58
2017-05-08T21:58:26.117Z,5.70
2017-05-08T22:00:53.049Z,7.05
2017-05-08T22:03:19.970Z,7.83
2017-05-08T22:05:46.924Z,7.77
2017-05-08T22:08:13.854Z,7.88
2017-05-08T22:10:40.766Z,7.47
2017-05-08T22:13:08.453Z,5.80
2017-05-08T22:15:35.371Z,4.97
2017-05-08T22:18:03.052Z,4.93
2017-05-08T22:20:30.355Z,5.27
2017-05-08T22:22:57.282Z,4.63
2017-05-08T22:25:24.202Z,4.60
2017-05-08T22:27:51.143Z,5.33
2017-05-08T22:30:18.079Z,5.68
2017-05-08T22:32:45.038Z,5.57
2017-05-08T22:35:11.962Z,5.12
2017-05-08T22:37:38.869Z,5.47
2017-05-08T22:40:05.795Z,5.35
2017-05-08T22:42:32.726Z,6.68
2017-05-08T22:44:59.642Z,6.87
2017-05-08T22:47:26.578Z,6.37
2017-05-08T22:49:53.526Z,5.75
2017-05-08T22:52:20.532Z,6.12
2017-05-08T22:54:47.446Z,6.32
2017-05-08T22:57:14.377Z,6.10
2017-05-08T22:59:41.301Z,6.75
2017-05-08T23:02:08.246Z,6.40
2017-05-08T23:04:35.190Z,5.87
2017-05-08T23:07:02.129Z,5.90
2017-05-08T23:09:29.059Z,6.05
2017-05-08T23:11:56.010Z,6.30
2017-05-08T23:14:23.654Z,5.90
2017-05-08T23:16:50.572Z,5.00
2017-05-08T23:19:17.520Z,5.50
2017-05-08T23:21:44.455Z,5.10
2017-05-08T23:24:11.383Z,5.45
2017-05-08T23:26:38.342Z,5.60
2017-05-08T23:29:05.266Z,6.20
2017-05-08T23:31:32.194Z,7.23
2017-05-08T23:33:59.135Z,7.02
2017-05-08T23:36:26.050Z,6.32
2017-05-08T23:38:52.973Z,7.55
2017-05-08T23:41:19.889Z,6.78
2017-05-08T23:43:46.819Z,7.53
2017-05-08T23:46:13.737Z,6.32
2017-05-08T23:48:41.401Z,6.33
2017-05-08T23:51:09.082Z,6.87
2017-05-08T23:53:35.986Z,6.78
2017-05-08T23:56:03.198Z,6.58
2017-05-08T23:58:30.118Z,7.70
